Captain Jimmy T Moran — WDE6653 — position and weather

sailwx.info

Track history (hours):
 
Tides and Currents Weather Stations Pressure Air Temp Water Temp Dewpoint Dewpoint Depression Visibility Wind Speed Wind Dir Waves Ship Positions

Captain Jimmy T Moran

Owner: Moran Towing Corp, New Cannan, CT. More information available from US FCC via Universal Licensing System and Coast Guard Vessel Documentation Center.

Last reported at 2015-Jan-25 00:08 UTC. Time now 2015-Jan-25 03:55 UTC.
Position N 29°55' W 090°06'.

Length 26 m; draft 4.9 m.

Type: Tug. MMSI: 367382920.

Date/timePositionNaut miles runAvg speedWind from/ knotsBaromVisibWave heightAir tempDewpointWater temp
2015-Jan-25 00:08N 29°55' W 090°06'2 0.8
2015-Jan-24 21:31N 29°56' W 090°04'6 6.1
2015-Jan-24 20:31N 29°55' W 089°57'6 0.3
2015-Jan-24 00:23N 29°57' W 090°03'2 0.6
2015-Jan-23 20:31N 29°55' W 090°04'2 0.0
2015-Jan-22 06:33N 29°55' W 090°06'0 0.1
2015-Jan-22 00:33N 29°55' W 090°07'1 0.6
2015-Jan-21 22:43N 29°55' W 090°06'0 0.6
2015-Jan-21 22:33N 29°55' W 090°05'4 2.0
2015-Jan-21 20:22N 29°57' W 090°01'1 0.3
2015-Jan-21 17:32N 29°57' W 090°00'1 0.8
2015-Jan-21 16:33N 29°57' W 090°01'5 0.9
2015-Jan-21 11:04N 29°55' W 090°06'0 0.5
2015-Jan-21 10:15N 29°55' W 090°05'0 0.6
2015-Jan-21 09:31N 29°55' W 090°06'0 0.2
2015-Jan-21 08:26N 29°55' W 090°06'1 1.5
2015-Jan-21 07:28N 29°55' W 090°04'2 1.4
2015-Jan-21 06:17N 29°55' W 090°06'0 0.0
2015-Jan-21 05:27N 29°55' W 090°06'0 0.0
2015-Jan-21 04:30N 29°55' W 090°06'0 0.0
2015-Jan-21 03:29N 29°55' W 090°06'0 0.0
2015-Jan-21 02:31N 29°55' W 090°06'2 0.2
2015-Jan-20 15:14N 29°55' W 090°04'2 0.1
2015-Jan-20 04:18N 29°55' W 090°05'1 0.3
2015-Jan-20 01:21N 29°55' W 090°06'0 0.0
2015-Jan-19 12:12N 29°55' W 090°06'0 0.0
2015-Jan-18 18:21N 29°55' W 090°06'0 0.0
2015-Jan-18 17:04N 29°55' W 090°06'0 0.0
2015-Jan-18 15:26N 29°55' W 090°06'0 0.0
2015-Jan-18 14:28N 29°55' W 090°06'0 0.0
2015-Jan-18 13:30N 29°55' W 090°06'0 0.3
2015-Jan-18 12:23N 29°55' W 090°06'0 0.2
2015-Jan-18 10:27N 29°55' W 090°06'0 0.0
2015-Jan-18 09:31N 29°55' W 090°06'0 0.0
2015-Jan-18 08:22N 29°55' W 090°06'0 0.0
2015-Jan-18 07:26N 29°55' W 090°06'0 0.0
2015-Jan-18 06:23N 29°55' W 090°06'0 0.0
2015-Jan-18 05:32N 29°55' W 090°06'0 0.0
2015-Jan-18 04:28N 29°55' W 090°06'0 0.0
2015-Jan-18 03:18N 29°55' W 090°06'0 0.0
2015-Jan-18 02:11N 29°55' W 090°06'0 0.0
2015-Jan-18 01:27N 29°55' W 090°06'0 0.3
2015-Jan-18 00:31N 29°55' W 090°06'1 0.7
2015-Jan-17 23:32N 29°55' W 090°07'2 2.1
2015-Jan-17 22:32N 29°55' W 090°05'0 0.0
2015-Jan-17 16:06N 29°55' W 090°05'1 0.2
2015-Jan-17 11:17N 29°55' W 090°06'0 0.2
2015-Jan-17 10:32N 29°55' W 090°06'5 0.2
2015-Jan-16 00:13N 29°57' W 090°01'1 0.9
2015-Jan-15 23:33N 29°57' W 090°01'0 0.0
2015-Jan-15 22:31N 29°57' W 090°01'0 0.0
2015-Jan-15 21:30N 29°57' W 090°01'0 0.0
2015-Jan-15 20:31N 29°57' W 090°01'0 0.0
2015-Jan-15 18:05N 29°57' W 090°01'2 0.7
2015-Jan-15 15:19N 29°57' W 090°03'3 1.6
2015-Jan-15 13:21N 29°55' W 090°06'0 0.0
2015-Jan-15 11:31N 29°55' W 090°06'0 0.2
2015-Jan-15 10:18N 29°55' W 090°06'1 0.4
2015-Jan-15 08:11N 29°55' W 090°07'1 0.2
2015-Jan-15 05:33N 29°55' W 090°06'0 0.0
2015-Jan-15 03:33N 29°55' W 090°06'0 0.0
2015-Jan-15 02:07N 29°55' W 090°06'3 5.4
2015-Jan-15 01:33N 29°57' W 090°04'  
Track history (hours):
 
Tides and Currents Weather Stations Pressure Air Temp Water Temp Dewpoint Dewpoint Depression Visibility Wind Speed Wind Dir Waves Ship Positions

Captain Jimmy T Moran

Owner: Moran Towing Corp, New Cannan, CT. More information available from US FCC via Universal Licensing System and Coast Guard Vessel Documentation Center.

Last reported at 2015-Jan-25 00:08 UTC. Time now 2015-Jan-25 03:55 UTC.
Position N 29°55' W 090°06'.

Length 26 m; draft 4.9 m.

Type: Tug. MMSI: 367382920.

Date/timePositionNaut miles runAvg speedWind from/ knotsBaromVisibWave heightAir tempDewpointWater temp
2015-Jan-25 00:08N 29°55' W 090°06'2 0.8
2015-Jan-24 21:31N 29°56' W 090°04'6 6.1
2015-Jan-24 20:31N 29°55' W 089°57'6 0.3
2015-Jan-24 00:23N 29°57' W 090°03'2 0.6
2015-Jan-23 20:31N 29°55' W 090°04'2 0.0
2015-Jan-22 06:33N 29°55' W 090°06'0 0.1
2015-Jan-22 00:33N 29°55' W 090°07'1 0.6
2015-Jan-21 22:43N 29°55' W 090°06'0 0.6
2015-Jan-21 22:33N 29°55' W 090°05'4 2.0
2015-Jan-21 20:22N 29°57' W 090°01'1 0.3
2015-Jan-21 17:32N 29°57' W 090°00'1 0.8
2015-Jan-21 16:33N 29°57' W 090°01'5 0.9
2015-Jan-21 11:04N 29°55' W 090°06'0 0.5
2015-Jan-21 10:15N 29°55' W 090°05'0 0.6
2015-Jan-21 09:31N 29°55' W 090°06'0 0.2
2015-Jan-21 08:26N 29°55' W 090°06'1 1.5
2015-Jan-21 07:28N 29°55' W 090°04'2 1.4
2015-Jan-21 06:17N 29°55' W 090°06'0 0.0
2015-Jan-21 05:27N 29°55' W 090°06'0 0.0
2015-Jan-21 04:30N 29°55' W 090°06'0 0.0
2015-Jan-21 03:29N 29°55' W 090°06'0 0.0
2015-Jan-21 02:31N 29°55' W 090°06'2 0.2
2015-Jan-20 15:14N 29°55' W 090°04'2 0.1
2015-Jan-20 04:18N 29°55' W 090°05'1 0.3
2015-Jan-20 01:21N 29°55' W 090°06'0 0.0
2015-Jan-19 12:12N 29°55' W 090°06'0 0.0
2015-Jan-18 18:21N 29°55' W 090°06'0 0.0
2015-Jan-18 17:04N 29°55' W 090°06'0 0.0
2015-Jan-18 15:26N 29°55' W 090°06'0 0.0
2015-Jan-18 14:28N 29°55' W 090°06'0 0.0
2015-Jan-18 13:30N 29°55' W 090°06'0 0.3
2015-Jan-18 12:23N 29°55' W 090°06'0 0.2
2015-Jan-18 10:27N 29°55' W 090°06'0 0.0
2015-Jan-18 09:31N 29°55' W 090°06'0 0.0
2015-Jan-18 08:22N 29°55' W 090°06'0 0.0
2015-Jan-18 07:26N 29°55' W 090°06'0 0.0
2015-Jan-18 06:23N 29°55' W 090°06'0 0.0
2015-Jan-18 05:32N 29°55' W 090°06'0 0.0
2015-Jan-18 04:28N 29°55' W 090°06'0 0.0
2015-Jan-18 03:18N 29°55' W 090°06'0 0.0
2015-Jan-18 02:11N 29°55' W 090°06'0 0.0
2015-Jan-18 01:27N 29°55' W 090°06'0 0.3
2015-Jan-18 00:31N 29°55' W 090°06'1 0.7
2015-Jan-17 23:32N 29°55' W 090°07'2 2.1
2015-Jan-17 22:32N 29°55' W 090°05'0 0.0
2015-Jan-17 16:06N 29°55' W 090°05'1 0.2
2015-Jan-17 11:17N 29°55' W 090°06'0 0.2
2015-Jan-17 10:32N 29°55' W 090°06'5 0.2
2015-Jan-16 00:13N 29°57' W 090°01'1 0.9
2015-Jan-15 23:33N 29°57' W 090°01'0 0.0
2015-Jan-15 22:31N 29°57' W 090°01'0 0.0
2015-Jan-15 21:30N 29°57' W 090°01'0 0.0
2015-Jan-15 20:31N 29°57' W 090°01'0 0.0
2015-Jan-15 18:05N 29°57' W 090°01'2 0.7
2015-Jan-15 15:19N 29°57' W 090°03'3 1.6
2015-Jan-15 13:21N 29°55' W 090°06'0 0.0
2015-Jan-15 11:31N 29°55' W 090°06'0 0.2
2015-Jan-15 10:18N 29°55' W 090°06'1 0.4
2015-Jan-15 08:11N 29°55' W 090°07'1 0.2
2015-Jan-15 05:33N 29°55' W 090°06'0 0.0
2015-Jan-15 03:33N 29°55' W 090°06'0 0.0
2015-Jan-15 02:07N 29°55' W 090°06'3 5.4
2015-Jan-15 01:33N 29°57' W 090°04'  

Dump ship's entire track history